createdAt,value
2023-01-13T00:00:36.669Z,1.71
2023-01-13T00:03:05.165Z,1.80
2023-01-13T00:05:33.384Z,1.83
2023-01-13T00:08:01.611Z,1.83
2023-01-13T00:10:29.846Z,1.79
2023-01-13T00:12:59.461Z,1.79
2023-01-13T00:15:27.667Z,1.74
2023-01-13T00:17:56.102Z,1.68
2023-01-13T00:20:24.529Z,1.63
2023-01-13T00:22:52.748Z,1.64
2023-01-13T00:25:20.942Z,1.69
2023-01-13T00:27:49.150Z,1.64
2023-01-13T00:30:19.076Z,1.59
2023-01-13T00:32:47.305Z,1.62
2023-01-13T00:35:15.484Z,1.64
2023-01-13T00:37:43.644Z,1.61
2023-01-13T00:40:13.258Z,1.66
2023-01-13T00:42:58.660Z,1.67
2023-01-13T00:45:28.287Z,1.71
2023-01-13T00:47:56.501Z,1.69
2023-01-13T00:50:24.692Z,1.71
2023-01-13T00:52:52.897Z,1.69
2023-01-13T00:55:21.243Z,1.75
2023-01-13T00:57:49.479Z,1.75
2023-01-13T01:00:18.421Z,1.71
2023-01-13T01:02:48.277Z,1.75
2023-01-13T01:05:16.548Z,1.75
2023-01-13T01:07:44.737Z,1.73
2023-01-13T01:10:13.044Z,1.71
2023-01-13T01:12:41.323Z,1.65
2023-01-13T01:15:10.911Z,1.70
2023-01-13T01:17:39.177Z,1.77
2023-01-13T01:20:10.431Z,1.68
2023-01-13T01:22:38.637Z,1.66
2023-01-13T01:25:07.615Z,1.65
2023-01-13T01:27:35.945Z,1.61
2023-01-13T01:30:04.248Z,1.56
2023-01-13T01:32:34.727Z,1.61
2023-01-13T01:35:02.932Z,1.66
2023-01-13T01:37:32.566Z,1.68
2023-01-13T01:40:00.786Z,1.66
2023-01-13T01:42:46.716Z,1.67
2023-01-13T01:45:19.113Z,1.64
2023-01-13T01:47:51.158Z,1.67
2023-01-13T01:50:20.993Z,1.67
2023-01-13T01:52:55.189Z,1.62
2023-01-13T01:55:26.934Z,1.66
2023-01-13T01:57:58.782Z,1.63
2023-01-13T02:00:29.263Z,1.63
2023-01-13T02:02:58.665Z,1.62
2023-01-13T02:05:26.971Z,1.57
2023-01-13T02:07:59.034Z,1.61
2023-01-13T02:10:29.887Z,1.57
2023-01-13T02:13:01.703Z,1.63
2023-01-13T02:15:36.714Z,1.61
2023-01-13T02:18:20.596Z,1.52
2023-01-13T02:21:17.458Z,1.56
2023-01-13T02:24:33.348Z,1.57
2023-01-13T02:27:35.620Z,1.57
2023-01-13T02:30:35.850Z,1.60
2023-01-13T02:33:23.479Z,1.63
2023-01-13T02:35:58.207Z,1.65
2023-01-13T02:38:31.471Z,1.68
2023-01-13T02:41:23.375Z,1.68
2023-01-13T02:44:16.302Z,1.76
2023-01-13T02:46:55.009Z,1.88
2023-01-13T02:49:32.613Z,1.76
2023-01-13T02:52:07.373Z,1.77
2023-01-13T02:54:39.129Z,1.77
2023-01-13T02:57:10.648Z,1.76
2023-01-13T02:59:41.266Z,1.80
2023-01-13T03:02:15.226Z,1.83
2023-01-13T03:04:55.851Z,1.77
2023-01-13T03:07:57.100Z,1.84
2023-01-13T03:10:47.598Z,1.88
2023-01-13T03:13:51.868Z,1.99
2023-01-13T03:16:31.146Z,1.98
2023-01-13T03:19:14.854Z,2.06
2023-01-13T03:21:51.869Z,2.04
2023-01-13T03:24:27.534Z,2.10
2023-01-13T03:27:02.999Z,2.02
2023-01-13T03:29:36.932Z,2.01
2023-01-13T03:32:12.427Z,2.02
2023-01-13T03:34:47.884Z,2.04
2023-01-13T03:37:20.393Z,2.06
2023-01-13T03:39:54.164Z,1.98
2023-01-13T03:42:25.221Z,2.04
2023-01-13T03:44:57.821Z,2.05
2023-01-13T03:47:32.605Z,2.09
2023-01-13T03:50:06.582Z,2.12
2023-01-13T03:52:38.326Z,2.15
2023-01-13T03:55:10.696Z,2.17
2023-01-13T03:57:46.869Z,2.21
2023-01-13T04:00:16.697Z,2.21
2023-01-13T04:02:51.575Z,2.25
2023-01-13T04:05:21.452Z,2.33
2023-01-13T04:07:56.275Z,2.32
2023-01-13T04:10:29.332Z,2.30
2023-01-13T04:13:02.717Z,2.29
2023-01-13T04:15:34.126Z,2.28
2023-01-13T04:18:13.365Z,2.31
2023-01-13T04:20:44.311Z,2.32
2023-01-13T04:23:13.655Z,2.33
2023-01-13T04:25:42.085Z,2.34
2023-01-13T04:28:11.537Z,2.39
2023-01-13T04:30:40.181Z,2.40
2023-01-13T04:33:08.350Z,2.39
2023-01-13T04:35:37.577Z,2.39
2023-01-13T04:38:10.000Z,2.38
2023-01-13T04:40:38.148Z,2.38
2023-01-13T04:43:06.805Z,2.36
2023-01-13T04:45:35.232Z,2.33
2023-01-13T04:48:03.462Z,2.36
2023-01-13T04:50:31.861Z,2.31
2023-01-13T04:53:01.240Z,2.32
2023-01-13T04:55:31.882Z,2.31
2023-01-13T04:58:04.417Z,2.41
2023-01-13T05:00:32.763Z,2.39
2023-01-13T05:03:01.226Z,2.41
2023-01-13T05:05:30.799Z,2.44
2023-01-13T05:07:59.280Z,2.37
2023-01-13T05:10:27.964Z,2.33
2023-01-13T05:13:15.094Z,2.29
2023-01-13T05:16:06.846Z,2.30
2023-01-13T05:18:35.173Z,2.31
2023-01-13T05:21:03.215Z,2.30
2023-01-13T05:23:48.838Z,2.30
2023-01-13T05:26:16.875Z,2.32
2023-01-13T05:28:46.367Z,2.32
2023-01-13T05:31:15.092Z,2.30
2023-01-13T05:33:43.258Z,2.29
2023-01-13T05:36:11.463Z,2.33
2023-01-13T05:38:39.547Z,2.29
2023-01-13T05:41:25.332Z,2.29
2023-01-13T05:43:54.758Z,2.27
2023-01-13T05:46:22.992Z,2.27
2023-01-13T05:48:51.118Z,2.25
2023-01-13T05:51:19.782Z,2.26
2023-01-13T05:53:47.873Z,2.28
2023-01-13T05:56:18.037Z,2.22
2023-01-13T05:58:46.404Z,2.25
2023-01-13T06:01:15.999Z,2.20
2023-01-13T06:03:44.192Z,2.19
2023-01-13T06:06:12.265Z,2.16
2023-01-13T06:08:40.390Z,2.19
2023-01-13T06:11:08.741Z,2.21
2023-01-13T06:13:37.133Z,2.24
2023-01-13T06:16:05.619Z,2.14
2023-01-13T06:18:35.152Z,2.17
2023-01-13T06:21:03.208Z,2.15
2023-01-13T06:23:35.074Z,2.15
2023-01-13T06:26:09.645Z,2.17
2023-01-13T06:28:37.770Z,2.16
2023-01-13T06:31:08.572Z,2.22
2023-01-13T06:33:40.921Z,2.19
2023-01-13T06:36:13.602Z,2.08
2023-01-13T06:38:44.475Z,2.10
2023-01-13T06:41:12.611Z,2.11
2023-01-13T06:43:40.359Z,2.11
2023-01-13T06:46:08.530Z,2.17
2023-01-13T06:48:38.078Z,2.10
2023-01-13T06:51:06.652Z,2.13
2023-01-13T06:53:34.727Z,2.05
2023-01-13T06:56:02.805Z,2.10
2023-01-13T06:58:30.878Z,2.10
2023-01-13T07:01:01.763Z,2.14
2023-01-13T07:03:29.992Z,2.12
2023-01-13T07:06:01.910Z,2.15
2023-01-13T07:08:30.047Z,2.12
2023-01-13T07:10:58.136Z,2.11
2023-01-13T07:13:43.482Z,2.17
2023-01-13T07:16:11.637Z,2.15
2023-01-13T07:18:39.998Z,2.15
2023-01-13T07:21:13.277Z,2.20
2023-01-13T07:23:42.956Z,2.23
2023-01-13T07:26:12.049Z,2.34
2023-01-13T07:28:40.998Z,2.42
2023-01-13T07:31:15.862Z,2.38
2023-01-13T07:33:44.306Z,2.36
2023-01-13T07:36:15.017Z,2.37
2023-01-13T07:38:44.680Z,2.45
2023-01-13T07:41:31.667Z,2.47
2023-01-13T07:44:00.397Z,2.54
2023-01-13T07:46:28.647Z,2.52
2023-01-13T07:48:56.749Z,2.56
2023-01-13T07:51:26.391Z,2.61
2023-01-13T07:53:54.989Z,2.66
2023-01-13T07:56:23.165Z,2.71
2023-01-13T07:58:53.004Z,2.75
2023-01-13T08:01:21.581Z,2.81
2023-01-13T08:03:49.776Z,2.82
2023-01-13T08:06:17.987Z,2.96
2023-01-13T08:08:47.495Z,3.02
2023-01-13T08:11:15.707Z,3.08
2023-01-13T08:13:43.844Z,3.00
2023-01-13T08:16:14.854Z,3.00
2023-01-13T08:18:43.542Z,3.12
2023-01-13T08:21:13.846Z,3.15
2023-01-13T08:23:42.974Z,3.17
2023-01-13T08:26:14.835Z,3.12
2023-01-13T08:28:43.100Z,3.23
2023-01-13T08:31:13.508Z,3.28
2023-01-13T08:33:42.373Z,3.26
2023-01-13T08:36:12.479Z,3.34
2023-01-13T08:38:42.163Z,3.37
2023-01-13T08:41:13.534Z,3.45
2023-01-13T08:43:41.828Z,3.47
2023-01-13T08:46:10.249Z,3.57
2023-01-13T08:48:38.677Z,3.60
2023-01-13T08:51:08.952Z,3.72
2023-01-13T08:53:37.440Z,3.83
2023-01-13T08:56:08.586Z,3.94
2023-01-13T08:58:38.107Z,4.06
2023-01-13T09:01:06.975Z,4.23
2023-01-13T09:03:35.179Z,4.51
2023-01-13T09:06:03.294Z,4.75
2023-01-13T09:08:31.495Z,4.93
2023-01-13T09:10:59.841Z,5.06
2023-01-13T09:13:26.940Z,5.23
2023-01-13T09:15:57.118Z,5.37
2023-01-13T09:18:25.382Z,5.43
2023-01-13T09:20:53.745Z,5.78
2023-01-13T09:23:21.950Z,6.01
2023-01-13T09:25:50.695Z,5.85
2023-01-13T09:28:18.894Z,6.00
2023-01-13T09:30:47.183Z,5.92
2023-01-13T09:33:34.190Z,5.93
2023-01-13T09:36:02.469Z,5.96
2023-01-13T09:38:30.633Z,5.94
2023-01-13T09:40:58.891Z,5.99
2023-01-13T09:43:52.569Z,6.03
2023-01-13T09:46:43.065Z,6.09
2023-01-13T09:49:20.885Z,6.27
2023-01-13T09:51:56.561Z,6.23
2023-01-13T09:54:32.516Z,6.16
2023-01-13T09:57:01.214Z,6.34
2023-01-13T09:59:36.553Z,6.38
2023-01-13T10:02:23.011Z,6.48
2023-01-13T10:05:07.548Z,6.46
2023-01-13T10:07:39.649Z,6.53
2023-01-13T10:10:14.848Z,6.62
2023-01-13T10:13:03.729Z,6.68
2023-01-13T10:15:31.871Z,6.85
2023-01-13T10:18:08.494Z,6.81
2023-01-13T10:20:50.366Z,6.83
2023-01-13T10:23:47.507Z,7.18
2023-01-13T10:26:34.351Z,7.21
2023-01-13T10:29:02.768Z,7.14
2023-01-13T10:31:31.043Z,7.17
2023-01-13T10:34:00.538Z,7.11
2023-01-13T10:36:30.081Z,7.11
2023-01-13T10:39:09.863Z,6.99
2023-01-13T10:41:38.050Z,7.17
2023-01-13T10:44:15.855Z,7.31
2023-01-13T10:46:53.949Z,7.40
2023-01-13T10:49:31.114Z,7.45
2023-01-13T10:52:02.037Z,7.42
2023-01-13T10:54:31.231Z,7.65
2023-01-13T10:57:19.555Z,7.57
2023-01-13T10:59:48.313Z,7.63
2023-01-13T11:02:26.966Z,7.46
2023-01-13T11:05:03.960Z,7.49
2023-01-13T11:07:36.290Z,7.50
2023-01-13T11:10:17.678Z,7.89
2023-01-13T11:12:54.202Z,8.36
2023-01-13T11:15:26.320Z,8.74
2023-01-13T11:18:01.513Z,9.46
2023-01-13T11:20:34.101Z,10.33
2023-01-13T11:23:10.721Z,10.90
2023-01-13T11:25:43.534Z,10.86
2023-01-13T11:28:36.479Z,11.14
2023-01-13T11:31:12.351Z,11.54
2023-01-13T11:33:45.197Z,12.01
2023-01-13T11:36:20.223Z,12.24
2023-01-13T11:38:52.542Z,12.22
2023-01-13T11:41:35.645Z,11.90
2023-01-13T11:44:14.745Z,11.68
2023-01-13T11:46:43.279Z,11.74
2023-01-13T11:49:23.625Z,11.62
2023-01-13T11:51:58.415Z,11.63
2023-01-13T11:54:47.132Z,11.73
2023-01-13T11:57:40.544Z,11.68
2023-01-13T12:00:42.068Z,11.69
2023-01-13T12:03:27.721Z,11.45
2023-01-13T12:06:19.371Z,11.49
2023-01-13T12:09:22.384Z,11.30
2023-01-13T12:12:23.593Z,11.14
2023-01-13T12:15:25.869Z,10.90
2023-01-13T12:18:09.665Z,10.80
2023-01-13T12:20:51.777Z,10.67
2023-01-13T12:23:28.185Z,10.69
2023-01-13T12:26:01.560Z,10.61
2023-01-13T12:28:43.051Z,10.39
2023-01-13T12:31:12.543Z,10.33
2023-01-13T12:33:55.896Z,10.40
2023-01-13T12:36:29.512Z,10.49
2023-01-13T12:38:59.771Z,10.48
2023-01-13T12:41:38.886Z,10.51
2023-01-13T12:44:18.444Z,10.65
2023-01-13T12:46:53.167Z,10.76
2023-01-13T12:49:26.819Z,10.59
2023-01-13T12:52:15.436Z,10.58
2023-01-13T12:55:05.236Z,10.60
2023-01-13T12:57:36.154Z,10.57
2023-01-13T13:00:18.828Z,10.54
2023-01-13T13:03:34.797Z,10.52
2023-01-13T13:06:18.657Z,10.44
2023-01-13T13:09:03.622Z,10.37
2023-01-13T13:12:01.071Z,10.38
2023-01-13T13:15:03.909Z,10.49
2023-01-13T13:17:44.472Z,10.47
2023-01-13T13:20:53.875Z,10.24
2023-01-13T13:23:49.001Z,10.18
2023-01-13T13:26:25.000Z,10.04
2023-01-13T13:29:09.819Z,9.89
2023-01-13T13:32:00.114Z,9.88
2023-01-13T13:34:40.525Z,9.82
2023-01-13T13:38:06.792Z,9.69
2023-01-13T13:40:58.767Z,9.63
2023-01-13T13:43:45.660Z,9.59
2023-01-13T13:46:44.260Z,9.43
2023-01-13T13:49:13.296Z,9.33
2023-01-13T13:51:49.355Z,9.39
2023-01-13T13:54:21.730Z,9.40
2023-01-13T13:56:51.660Z,9.37
2023-01-13T13:59:22.547Z,9.28
2023-01-13T14:02:00.934Z,9.23
2023-01-13T14:04:31.575Z,9.22
2023-01-13T14:07:04.531Z,9.06
2023-01-13T14:09:42.889Z,9.09
2023-01-13T14:12:18.796Z,9.05
2023-01-13T14:14:48.361Z,8.97
2023-01-13T14:17:21.149Z,8.83
2023-01-13T14:19:54.753Z,8.87
2023-01-13T14:22:24.467Z,8.79
2023-01-13T14:24:55.738Z,8.70
2023-01-13T14:27:26.440Z,8.67
2023-01-13T14:29:55.586Z,8.61
2023-01-13T14:32:31.193Z,8.49
2023-01-13T14:34:59.366Z,8.56
2023-01-13T14:37:35.158Z,8.61
2023-01-13T14:40:04.059Z,8.54
2023-01-13T14:42:35.582Z,8.52
2023-01-13T14:45:04.360Z,8.46
2023-01-13T14:47:34.779Z,8.30
2023-01-13T14:50:08.493Z,8.16
2023-01-13T14:52:48.045Z,8.15
2023-01-13T14:55:30.091Z,8.14
2023-01-13T14:58:28.310Z,8.13
2023-01-13T15:01:30.293Z,8.04
2023-01-13T15:04:19.335Z,7.88
2023-01-13T15:06:48.838Z,7.77
2023-01-13T15:09:26.047Z,7.72
2023-01-13T15:11:56.376Z,7.66
2023-01-13T15:14:31.386Z,7.58
2023-01-13T15:16:59.706Z,7.60
2023-01-13T15:19:27.907Z,7.43
2023-01-13T15:21:56.101Z,7.34
2023-01-13T15:24:25.660Z,7.23
2023-01-13T15:26:53.899Z,7.23
2023-01-13T15:29:24.276Z,7.20
2023-01-13T15:31:52.678Z,7.17
2023-01-13T15:34:20.787Z,7.11
2023-01-13T15:36:48.969Z,7.01
2023-01-13T15:39:17.085Z,7.01
2023-01-13T15:42:04.091Z,6.97
2023-01-13T15:44:49.797Z,6.98
2023-01-13T15:47:17.914Z,6.94
2023-01-13T15:49:47.314Z,6.88
2023-01-13T15:52:22.118Z,6.89
2023-01-13T15:54:50.454Z,6.86
2023-01-13T15:57:24.273Z,6.82
2023-01-13T15:59:55.898Z,6.82
2023-01-13T16:02:27.483Z,6.77
2023-01-13T16:04:55.763Z,6.75
2023-01-13T16:07:25.630Z,6.67
2023-01-13T16:09:54.390Z,6.55
2023-01-13T16:12:23.964Z,6.52
2023-01-13T16:14:52.114Z,6.38
2023-01-13T16:17:22.124Z,6.24
2023-01-13T16:19:53.507Z,6.13
2023-01-13T16:22:25.089Z,6.09
2023-01-13T16:24:53.694Z,6.06
2023-01-13T16:27:25.338Z,5.99
2023-01-13T16:29:53.808Z,5.92
2023-01-13T16:32:22.089Z,5.88
2023-01-13T16:34:50.494Z,5.88
2023-01-13T16:37:23.873Z,5.84
2023-01-13T16:39:53.769Z,5.89
2023-01-13T16:42:26.930Z,5.90
2023-01-13T16:44:55.459Z,5.78
2023-01-13T16:47:24.431Z,5.73
2023-01-13T16:49:52.695Z,5.69
2023-01-13T16:52:21.069Z,5.63
2023-01-13T16:54:49.253Z,5.57
2023-01-13T16:57:17.438Z,5.54
2023-01-13T16:59:47.376Z,5.45
2023-01-13T17:02:20.221Z,5.41
2023-01-13T17:04:48.990Z,5.38
2023-01-13T17:07:18.389Z,5.40
2023-01-13T17:09:46.594Z,5.38
2023-01-13T17:12:15.147Z,5.33
2023-01-13T17:14:44.656Z,5.20
2023-01-13T17:17:23.657Z,5.25
2023-01-13T17:19:52.593Z,5.25
2023-01-13T17:22:21.623Z,5.21
2023-01-13T17:24:50.452Z,5.18
2023-01-13T17:27:18.820Z,5.17
2023-01-13T17:29:47.613Z,5.17
2023-01-13T17:32:19.595Z,5.09
2023-01-13T17:34:48.911Z,5.07
2023-01-13T17:37:18.339Z,5.05
2023-01-13T17:39:48.468Z,5.03
2023-01-13T17:42:17.005Z,5.00
2023-01-13T17:44:47.000Z,4.93
2023-01-13T17:47:15.508Z,4.93
2023-01-13T17:49:45.136Z,4.85
2023-01-13T17:52:13.846Z,4.82
2023-01-13T17:54:43.229Z,4.79
2023-01-13T17:57:11.824Z,4.86
2023-01-13T17:59:41.568Z,4.81
2023-01-13T18:02:13.355Z,4.78
2023-01-13T18:04:42.082Z,4.73
2023-01-13T18:07:14.770Z,4.70
2023-01-13T18:09:43.137Z,4.65
2023-01-13T18:12:12.695Z,4.67
2023-01-13T18:14:41.429Z,4.75
2023-01-13T18:17:09.991Z,4.77
2023-01-13T18:19:56.624Z,4.73
2023-01-13T18:22:49.881Z,4.72
2023-01-13T18:25:35.891Z,4.67
2023-01-13T18:28:05.507Z,4.68
2023-01-13T18:30:35.202Z,4.61
2023-01-13T18:33:03.587Z,4.58
2023-01-13T18:35:32.565Z,4.56
2023-01-13T18:38:03.390Z,4.55
2023-01-13T18:40:32.650Z,4.57
2023-01-13T18:43:00.339Z,4.58
2023-01-13T18:45:31.189Z,4.58
2023-01-13T18:48:01.670Z,4.58
2023-01-13T18:50:30.943Z,4.54
2023-01-13T18:52:59.813Z,4.50
2023-01-13T18:55:30.460Z,4.46
2023-01-13T18:57:59.872Z,4.34
2023-01-13T19:00:32.444Z,4.32
2023-01-13T19:05:35.779Z,4.38
2023-01-13T19:08:04.734Z,4.26
2023-01-13T19:10:36.766Z,4.22
2023-01-13T19:13:05.432Z,4.20
2023-01-13T19:15:34.572Z,4.18
2023-01-13T19:18:02.919Z,4.18
2023-01-13T19:20:31.970Z,4.23
2023-01-13T19:23:00.914Z,4.33
2023-01-13T19:25:29.627Z,4.41
2023-01-13T19:28:00.136Z,4.34
2023-01-13T19:30:29.243Z,4.34
2023-01-13T19:32:57.743Z,4.39
2023-01-13T19:35:26.151Z,4.46
2023-01-13T19:37:55.065Z,4.46
2023-01-13T19:40:26.085Z,4.53
2023-01-13T19:43:12.073Z,4.54
2023-01-13T19:45:42.540Z,4.57
2023-01-13T19:48:10.972Z,4.59
2023-01-13T19:50:40.749Z,4.61
2023-01-13T19:53:16.961Z,4.61
2023-01-13T19:55:48.767Z,4.61
2023-01-13T19:58:18.939Z,4.64
2023-01-13T20:00:49.816Z,4.69
2023-01-13T20:03:20.915Z,4.74
2023-01-13T20:05:50.601Z,4.76
2023-01-13T20:08:20.771Z,4.74
2023-01-13T20:10:51.179Z,4.74
2023-01-13T20:13:20.183Z,4.75
2023-01-13T20:15:50.467Z,4.82
2023-01-13T20:18:19.981Z,4.81
2023-01-13T20:20:48.875Z,4.74
2023-01-13T20:23:17.539Z,4.72
2023-01-13T20:25:46.514Z,4.63
2023-01-13T20:28:16.903Z,4.62
2023-01-13T20:30:45.807Z,4.65
2023-01-13T20:33:26.558Z,4.71
2023-01-13T20:35:59.529Z,4.70
2023-01-13T20:38:28.757Z,4.73
2023-01-13T20:41:00.897Z,4.74
2023-01-13T20:43:29.455Z,4.77
2023-01-13T20:45:58.279Z,4.77
2023-01-13T20:48:28.784Z,4.79
2023-01-13T20:51:00.526Z,4.77
2023-01-13T20:53:29.459Z,4.76
2023-01-13T20:55:58.836Z,4.77
2023-01-13T20:58:27.757Z,4.72
2023-01-13T21:00:59.725Z,4.68
2023-01-13T21:03:29.990Z,4.63
2023-01-13T21:05:59.900Z,4.57
2023-01-13T21:08:29.139Z,4.55
2023-01-13T21:11:04.233Z,4.59
2023-01-13T21:13:51.103Z,4.49
2023-01-13T21:16:19.622Z,4.48
2023-01-13T21:19:07.263Z,4.43
2023-01-13T21:21:35.877Z,4.41
2023-01-13T21:24:04.757Z,4.31
2023-01-13T21:26:34.033Z,4.33
2023-01-13T21:29:04.241Z,4.30
2023-01-13T21:31:32.591Z,4.32
2023-01-13T21:34:02.398Z,4.34
2023-01-13T21:36:31.257Z,4.34
2023-01-13T21:39:00.755Z,4.33
2023-01-13T21:41:46.051Z,4.20
2023-01-13T21:44:34.149Z,4.19
2023-01-13T21:47:19.969Z,4.20
2023-01-13T21:49:49.600Z,4.16
2023-01-13T21:52:17.897Z,4.16
2023-01-13T21:55:03.682Z,4.10
2023-01-13T21:57:32.219Z,4.05
2023-01-13T22:00:00.434Z,4.02
2023-01-13T22:02:32.972Z,4.07
2023-01-13T22:05:03.911Z,4.12
2023-01-13T22:07:33.644Z,4.18
2023-01-13T22:10:02.032Z,4.20
2023-01-13T22:12:30.392Z,4.18
2023-01-13T22:14:58.594Z,4.15
2023-01-13T22:17:28.579Z,4.10
2023-01-13T22:19:57.550Z,4.04
2023-01-13T22:22:27.727Z,4.03
2023-01-13T22:24:56.183Z,3.97
2023-01-13T22:27:25.968Z,3.91
2023-01-13T22:29:54.485Z,3.80
2023-01-13T22:32:22.634Z,3.68
2023-01-13T22:34:50.807Z,3.61
2023-01-13T22:37:18.972Z,3.50
2023-01-13T22:39:48.546Z,3.48
2023-01-13T22:42:16.713Z,3.43
2023-01-13T22:44:44.840Z,3.38
2023-01-13T22:47:12.924Z,3.42
2023-01-13T22:49:42.148Z,3.41
2023-01-13T22:52:10.372Z,3.40
2023-01-13T22:54:38.529Z,3.38
2023-01-13T22:57:07.979Z,3.37
2023-01-13T22:59:36.290Z,3.35
2023-01-13T23:02:04.382Z,3.39
2023-01-13T23:04:32.519Z,3.40
2023-01-13T23:07:01.135Z,3.44
2023-01-13T23:09:30.010Z,3.48
2023-01-13T23:11:59.333Z,3.51
2023-01-13T23:14:28.956Z,3.46
2023-01-13T23:16:57.135Z,3.45
2023-01-13T23:19:25.302Z,3.43
2023-01-13T23:21:53.562Z,3.36
2023-01-13T23:24:25.843Z,3.31
2023-01-13T23:26:54.149Z,3.26
2023-01-13T23:29:22.258Z,3.23
2023-01-13T23:31:51.819Z,3.13
2023-01-13T23:34:19.888Z,3.10
2023-01-13T23:36:48.040Z,3.01
2023-01-13T23:39:16.215Z,2.89
2023-01-13T23:41:44.286Z,2.83
2023-01-13T23:44:12.402Z,2.77
2023-01-13T23:46:40.598Z,2.67
2023-01-13T23:49:10.117Z,2.53
2023-01-13T23:51:38.308Z,2.46
2023-01-13T23:54:06.524Z,2.43
2023-01-13T23:56:39.275Z,2.43
2023-01-13T23:59:08.314Z,2.34
